KCMA

Camarillo Airport

Camarillo, California, USA
METAR KCMA 231955Z 24008KT 10SM CLR 23/13 A2989 RMK AO2 SLP131 T02280133
Observed Flight Rules
Oct-23 @ 19:55 UTC (52 minutes ago) Visual Flight Rules
Wind Visibility Clouds
240° at 8 knots 10 miles
  • Clear skies
Temperatures Readings
Current 23°C / 73°F
Dewpoint 13°C / 55°F
Humidity 53%
Altimeter 29.89" Hg
Pressure 1013.1 hPa
Elevation 23
METAR KCMA 231955Z 24008KT 10SM CLR 23/13 A2989 RMK AO2 SLP131 T02280133
Observed Flight Rules
Oct-23 @ 19:55 UTC
(52 minutes ago)
VFR
Wind Visibility
240° at 8 knots 10 miles
Clouds
  • Clear skies
Temperature Dewpoint
23°C / 73°F 13°C / 55°F
Humidity Altimeter Pressure
53% 29.89" Hg 1013.1 hPa